Latest Coastal Weather Observations for Lady Elliot Island

IDQ60701

Issued at 12:31 pm EST Tuesday 28 March 2017 (issued every 10 minutes, with the page automatically refreshed every 10 minutes)

About coastal observations | Map of coastal stations | Coastal observations for QLD | Marine services | Other Formats
Station Details ID: 039059 Name: LADY ELLIOT ISLAND Lat: -24.11 Lon: 152.72 Height: 3.6 m
Data from the previous 72 hours. | See also: Recent months at Lady Elliot Island
Date/Time
EST
Temp
°C
Wind Pressure Rain since
9am
mm
Weather Cloud Vis
km
Sea
Height
m
Swell
Dir  Spd
kts
Gust
kts
hPa Trend Height
m
Period
s
Dir
28/12:00pm 25.2 N 7 11 1011.3 - 5.8 Rain - - - - - -
28/11:30am 27.5 E 15 19 1011.3 - 0.0 - - - - - - -
28/11:00am 27.5 E 17 23 1011.6 - 0.0 - - - - - - -
28/10:30am 28.1 E 18 24 1011.6 - 0.0 - - - - - - -
28/10:00am 28.3 E 18 23 1011.7 - 0.0 - - - - - - -
28/09:30am 27.9 E 17 21 1011.7 - 0.0 - - - - - - -
28/09:00am 27.8 E 17 22 1011.8 - 62.8 - - - - - - -
28/08:30am 27.7 E 17 21 1011.6 - 62.8 - - - - - - -
28/08:00am 27.5 E 17 23 1011.2 - 62.8 - - - - - - -
28/07:30am 27.3 E 17 22 1011.0 - 62.8 - - - - - - -
28/07:00am 27.4 E 18 25 1010.6 - 62.8 - - - - - - -
28/06:30am 27.2 E 18 23 1010.3 - 62.8 - - - - - - -
28/06:00am 26.9 E 17 22 1010.0 - 62.8 - - - - - - -
28/05:30am 26.9 E 18 24 1009.7 - 62.8 - - - - - - -
28/05:00am 26.8 E 18 23 1009.5 - 62.8 - - - - - - -
28/04:30am 26.8 E 19 24 1009.2 - 62.8 - - - - - - -
28/04:00am 26.6 E 19 24 1009.4 - 62.8 - - - - - - -
28/03:30am 26.7 E 18 22 1009.4 - 62.8 - - - - - - -
28/03:00am 26.5 ESE 17 22 1009.6 - 62.8 - - - - - - -
28/02:30am 26.4 ESE 17 21 1009.8 - 62.8 - - - - - - -
28/02:00am 26.4 E 17 21 1010.1 - 62.8 - - - - - - -
28/01:30am 26.2 ESE 19 23 1010.2 - 62.8 - - - - - - -
28/01:00am 26.3 ESE 19 24 1010.5 - 62.8 - - - - - - -
28/12:30am 26.0 ESE 19 24 1010.8 - 62.8 - - - - - - -
28/12:00am 26.3 ESE 21 25 1011.0 - 62.8 - - - - - - -
 
Date/Time
EST
Temp
°C
Wind Pressure Rain since
9am
mm
Weather Cloud Vis
km
Sea
Height
m
Swell
Dir  Spd
kts
Gust
kts
hPa Trend Height
m
Period
s
Dir
27/11:30pm 26.3 ESE 21 25 1011.2 - 62.8 - - - - - - -
27/11:00pm 26.3 ESE 22 27 1011.3 - 62.8 - - - - - - -
27/10:30pm 26.3 ESE 17 23 1011.6 - 62.8 - - - - - - -
27/10:00pm 25.8 ESE 18 22 1011.7 - 62.8 - - - - - - -
27/09:30pm 25.9 ESE 19 23 1011.8 - 62.8 - - - - - - -
27/09:00pm 25.6 E 18 22 1012.0 - 62.8 Recent precip. - - - - - -
27/08:30pm 25.9 ESE 18 22 1012.2 - 62.8 - - - - - - -
27/08:00pm 25.0 SE 13 17 1012.1 - 62.0 - - - - - - -
27/07:30pm 23.9 SE 10 12 1012.0 - 60.6 - - - - - - -
27/07:00pm 24.3 ESE 13 16 1011.5 - 55.8 - - - - - - -
27/06:30pm 24.2 ENE 16 22 1011.5 - 48.6 - - - - - - -
27/06:00pm 24.4 NNE 6 13 1011.0 - 34.6 Rain - - - - - -
27/05:30pm 24.3 ENE 10 16 1010.9 - 17.8 - - - - - - -
27/05:19pm 25.2 ESE 20 28 1010.8 - 7.4 - - - - - - -
27/05:00pm 25.5 SE 23 31 1009.8 - 6.2 - - - - - - -
27/04:38pm 25.4 ESE 20 30 1009.6 - 4.6 - - - - - - -
27/04:30pm 25.2 ESE 18 24 1009.9 - 2.4 - - - - - - -
27/04:00pm 26.7 ESE 20 25 1009.7 - 0.0 - - - - - - -
27/03:30pm 26.9 ESE 20 25 1009.6 - 0.0 - - - - - - -
27/03:00pm 27.6 ESE 19 23 1009.7 - 0.0 - - - - - - -
27/02:30pm 27.0 ESE 19 25 1009.7 - 0.0 - - - - - - -
27/02:00pm 27.3 E 19 24 1010.1 - 0.0 - - - - - - -
27/01:30pm 27.7 E 18 22 1010.3 - 0.0 - - - - - - -
27/01:00pm 28.4 ESE 18 23 1010.6 - 0.0 - - - - - - -
27/12:30pm 28.4 ESE 18 22 1011.0 - 0.0 - - - - - - -
27/12:00pm 28.7 ESE 19 23 1011.5 - 0.0 - - - - - - -
27/11:30am 29.3 ESE 18 22 1011.8 - 0.0 - - - - - - -
27/11:00am 28.5 ESE 18 23 1012.0 - 0.0 - - - - - - -
27/10:30am 28.2 ESE 18 22 1012.4 - 0.0 - - - - - - -
27/10:00am 28.0 ESE 19 23 1012.5 - 0.0 - - - - - - -
27/09:30am 28.0 ESE 19 25 1012.5 - 0.0 - - - - - - -
27/09:00am 27.9 ESE 19 25 1012.5 - 0.6 - - - - - - -
27/08:30am 27.7 ESE 20 24 1012.6 - 0.6 - - - - - - -
27/08:00am 27.8 ESE 19 24 1012.3 - 0.6 - - - - - - -
27/07:30am 27.5 ESE 19 25 1011.9 - 0.6 - - - - - - -
27/07:00am 27.6 ESE 19 23 1011.7 - 0.6 - - - - - - -
27/06:30am 27.5 E 17 22 1011.4 - 0.6 - - - - - - -
27/06:00am 27.1 E 17 21 1011.3 - 0.6 - - - - - - -
27/05:30am 27.2 E 19 24 1011.1 - 0.6 - - - - - - -
27/05:00am 27.0 E 18 25 1010.8 - 0.6 - - - - - - -
27/04:30am 26.9 E 18 23 1010.6 - 0.4 - - - - - - -
27/04:00am 26.7 E 18 23 1010.6 - 0.4 - - - - - - -
27/03:30am 26.4 E 18 23 1010.6 - 0.0 - - - - - - -
27/03:00am 26.7 E 16 21 1010.7 - 0.0 - - - - - - -
27/02:30am 27.2 ESE 18 23 1010.9 - 0.0 - - - - - - -
27/02:00am 27.2 ESE 19 23 1011.2 - 0.0 - - - - - - -
27/01:30am 27.1 ESE 18 22 1011.6 - 0.0 - - - - - - -
27/01:00am 27.1 ESE 17 22 1012.0 - 0.0 - - - - - - -
27/12:30am 27.0 ESE 17 23 1012.4 - 0.0 - - - - - - -
27/12:00am 27.2 ESE 18 22 1012.5 - 0.0 - - - - - - -
 
Date/Time
EST
Temp
°C
Wind Pressure Rain since
9am
mm
Weather Cloud Vis
km
Sea
Height
m
Swell
Dir  Spd
kts
Gust
kts
hPa Trend Height
m
Period
s
Dir
26/11:30pm 27.0 ESE 16 21 1012.7 - 0.0 - - - - - - -
26/11:00pm 26.8 ESE 18 23 1013.2 - 0.0 - - - - - - -
26/10:30pm 25.7 E 20 27 1013.4 - 0.0 - - - - - - -
26/10:00pm 27.3 E 18 23 1013.5 - 0.0 - - - - - - -
26/09:30pm 27.3 ESE 18 23 1013.5 - 0.0 - - - - - - -
26/09:00pm 27.5 ESE 19 24 1013.3 - 0.0 - - - - - - -
26/08:30pm 27.5 ESE 19 23 1013.0 - 0.0 - - - - - - -
26/08:00pm 27.5 ESE 18 22 1012.6 - 0.0 - - - - - - -
26/07:30pm 27.4 ESE 18 23 1012.2 - 0.0 - - - - - - -
26/07:00pm 27.4 ESE 19 23 1011.8 - 0.0 - - - - - - -
26/06:30pm 27.3 ESE 19 24 1011.6 - 0.0 - - - - - - -
26/06:00pm 27.3 ESE 19 23 1011.3 - 0.0 - - - - - - -
26/05:30pm 27.2 ESE 16 21 1010.9 - 0.0 - - - - - - -
26/05:00pm 27.4 ESE 19 22 1010.7 - 0.0 - - - - - - -
26/04:30pm 27.5 ESE 18 22 1010.6 - 0.0 - - - - - - -
26/04:00pm 27.7 ESE 17 21 1010.4 - 0.0 - - - - - - -
26/03:30pm 28.1 ESE 17 21 1010.4 - 0.0 - - - - - - -
26/03:00pm 28.3 ESE 15 18 1010.4 - 0.0 - - - - - - -
26/02:30pm 28.3 ESE 15 19 1010.8 - 0.0 - - - - - - -
26/02:00pm 29.0 ESE 15 19 1010.8 - 0.0 - - - - - - -
26/01:30pm 28.5 SE 15 19 1011.1 - 0.0 - - - - - - -
26/01:00pm 28.7 ESE 13 19 1011.2 - 0.0 - - - - - - -
26/12:30pm 29.1 SE 15 20 1011.4 - 0.0 - - - - - - -
26/12:00pm 29.3 ESE 14 18 1011.8 - 0.0 - - - - - - -
26/11:30am 28.8 ESE 14 18 1012.4 - 0.0 - - - - - - -
26/11:00am 28.9 ESE 15 19 1012.7 - 0.0 - - - - - - -
26/10:30am 28.7 ESE 15 19 1013.0 - 0.0 - - - - - - -
26/10:00am 28.5 ESE 15 20 1013.2 - 0.0 - - - - - - -
26/09:30am 28.1 E 15 19 1013.3 - 0.0 - - - - - - -
26/09:00am 27.8 ESE 16 19 1013.0 - 0.0 - - - - - - -
26/08:30am 27.7 E 16 21 1013.1 - 0.0 - - - - - - -
26/08:00am 27.6 E 15 21 1013.1 - 0.0 - - - - - - -
26/07:30am 27.4 E 16 20 1012.8 - 0.0 - - - - - - -
26/07:00am 27.0 E 15 19 1012.4 - 0.0 - - - - - - -
26/06:30am 27.0 ESE 16 20 1012.3 - 0.0 - - - - - - -
26/06:00am 26.9 E 14 18 1012.0 - 0.0 - - - - - - -
26/05:30am 26.8 E 14 19 1011.7 - 0.0 - - - - - - -
26/05:00am 26.8 ESE 14 18 1011.4 - 0.0 - - - - - - -
26/04:30am 26.5 ESE 15 19 1011.0 - 0.0 - - - - - - -
26/04:00am 26.5 ESE 16 19 1010.7 - 0.0 - - - - - - -
26/03:30am 26.5 ESE 16 19 1010.7 - 0.0 - - - - - - -
26/03:00am 26.6 ESE 16 21 1010.7 - 0.0 - - - - - - -
26/02:30am 26.3 ESE 15 19 1011.1 - 0.0 - - - - - - -
26/02:00am 26.2 ESE 14 17 1011.6 - 0.0 - - - - - - -
26/01:30am 26.2 ESE 14 17 1011.9 - 0.0 - - - - - - -
26/01:00am 26.2 ESE 14 17 1012.3 - 0.0 - - - - - - -
26/12:30am 26.3 ESE 15 19 1012.7 - 0.0 - - - - - - -
26/12:00am 26.5 ESE 17 22 1013.2 - 0.0 - - - - - - -
 
Date/Time
EST
Temp
°C
Wind Pressure Rain since
9am
mm
Weather Cloud Vis
km
Sea
Height
m
Swell
Dir  Spd
kts
Gust
kts
hPa Trend Height
m
Period
s
Dir
25/11:30pm 26.5 SE 16 21 1013.4 - 0.0 - - - - - - -
25/11:00pm 26.3 SE 16 22 1013.4 - 0.0 - - - - - - -
25/10:30pm 26.3 SE 17 21 1013.3 - 0.0 - - - - - - -
25/10:00pm 26.2 SE 16 20 1013.5 - 0.0 - - - - - - -
25/09:30pm 26.2 SE 16 23 1013.7 - 0.0 - - - - - - -
25/09:00pm 26.3 SE 16 21 1013.5 - 0.0 - - - - - - -
25/08:30pm 26.5 SE 17 22 1013.3 - 0.0 - - - - - - -
25/08:00pm 26.7 SE 16 21 1013.0 - 0.0 - - - - - - -
25/07:30pm 26.8 ESE 14 19 1012.8 - 0.0 - - - - - - -
25/07:00pm 26.8 ESE 14 18 1012.5 - 0.0 - - - - - - -
25/06:30pm 26.3 ESE 13 17 1012.3 - 0.0 - - - - - - -
25/06:00pm 27.1 ESE 15 19 1012.2 - 0.0 - - - - - - -
25/05:30pm 27.2 ESE 14 17 1012.1 - 0.0 - - - - - - -
25/05:00pm 27.4 ESE 15 19 1011.8 - 0.0 - - - - - - -
25/04:30pm 27.7 ESE 14 17 1011.5 - 0.0 - - - - - - -
25/04:00pm 28.1 SE 14 19 1011.4 - 0.0 - - - - - - -
25/03:30pm 28.0 SE 15 18 1011.4 - 0.0 - - - - - - -
25/03:00pm 28.5 SE 14 19 1011.3 - 0.0 - - - - - - -
25/02:30pm 29.1 ESE 14 18 1011.3 - 0.0 - - - - - - -
25/02:00pm 28.8 SE 14 17 1011.6 - 0.0 - - - - - - -
25/01:30pm 28.9 SE 14 18 1012.0 - 0.0 - - - - - - -
25/01:00pm 28.5 SE 14 18 1012.2 - 0.0 - - - - - - -

Other Formats:

Comma delimited format used in spreadsheet applications
http://www.bom.gov.au/fwo/IDQ60701/IDQ60701.94388.axf

JavaScript Object Notation format (JSON) in row-major order
http://www.bom.gov.au/fwo/IDQ60701/IDQ60701.94388.json